sensor_id;sensor_type;location;lat;lon;timestamp;P1;durP1;ratioP1;P2;durP2;ratioP2
21804;SDS011;11064;47.102;15.452;2022-09-03T05:02:42;11.93;;;8.10;;
21804;SDS011;11064;47.102;15.452;2022-09-03T05:05:10;8.85;;;7.68;;
21804;SDS011;11064;47.102;15.452;2022-09-03T05:07:36;10.02;;;7.65;;
21804;SDS011;11064;47.102;15.452;2022-09-03T05:10:09;8.40;;;7.50;;
21804;SDS011;11064;47.102;15.452;2022-09-03T05:12:47;8.10;;;7.30;;
21804;SDS011;11064;47.102;15.452;2022-09-03T05:15:21;9.18;;;7.45;;
21804;SDS011;11064;47.102;15.452;2022-09-03T05:17:47;8.38;;;6.70;;
21804;SDS011;11064;47.102;15.452;2022-09-03T05:20:13;7.30;;;6.35;;
21804;SDS011;11064;47.102;15.452;2022-09-03T05:22:40;8.20;;;6.30;;
21804;SDS011;11064;47.102;15.452;2022-09-03T05:25:05;9.70;;;6.00;;
21804;SDS011;11064;47.102;15.452;2022-09-03T05:27:31;6.63;;;5.25;;
21804;SDS011;11064;47.102;15.452;2022-09-03T05:29:57;6.63;;;4.95;;
21804;SDS011;11064;47.102;15.452;2022-09-03T05:32:23;8.30;;;5.15;;
21804;SDS011;11064;47.102;15.452;2022-09-03T05:34:52;6.32;;;5.28;;
21804;SDS011;11064;47.102;15.452;2022-09-03T05:37:17;6.32;;;5.13;;
21804;SDS011;11064;47.102;15.452;2022-09-03T05:39:43;5.53;;;4.47;;
21804;SDS011;11064;47.102;15.452;2022-09-03T05:42:09;6.30;;;5.00;;
21804;SDS011;11064;47.102;15.452;2022-09-03T05:44:37;8.57;;;5.00;;
21804;SDS011;11064;47.102;15.452;2022-09-03T05:47:03;5.38;;;4.20;;
21804;SDS011;11064;47.102;15.452;2022-09-03T05:49:28;5.50;;;5.00;;
21804;SDS011;11064;47.102;15.452;2022-09-03T05:51:54;6.72;;;4.68;;
21804;SDS011;11064;47.102;15.452;2022-09-03T05:54:20;6.85;;;4.78;;
21804;SDS011;11064;47.102;15.452;2022-09-03T05:56:46;7.50;;;4.72;;
21804;SDS011;11064;47.102;15.452;2022-09-03T05:59:11;5.90;;;4.88;;
21804;SDS011;11064;47.102;15.452;2022-09-03T06:01:38;5.80;;;4.80;;
21804;SDS011;11064;47.102;15.452;2022-09-03T06:04:11;7.50;;;4.68;;
21804;SDS011;11064;47.102;15.452;2022-09-03T06:06:40;4.85;;;4.35;;
21804;SDS011;11064;47.102;15.452;2022-09-03T06:09:10;7.25;;;4.70;;
21804;SDS011;11064;47.102;15.452;2022-09-03T06:11:39;6.57;;;4.63;;
21804;SDS011;11064;47.102;15.452;2022-09-03T06:14:07;6.20;;;4.28;;
21804;SDS011;11064;47.102;15.452;2022-09-03T06:16:36;4.63;;;4.22;;
21804;SDS011;11064;47.102;15.452;2022-09-03T06:19:07;5.38;;;4.15;;
21804;SDS011;11064;47.102;15.452;2022-09-03T06:21:38;5.78;;;4.25;;
21804;SDS011;11064;47.102;15.452;2022-09-03T06:24:07;6.30;;;4.20;;
21804;SDS011;11064;47.102;15.452;2022-09-03T06:26:37;6.30;;;4.32;;
21804;SDS011;11064;47.102;15.452;2022-09-03T06:29:04;5.85;;;4.13;;
21804;SDS011;11064;47.102;15.452;2022-09-03T06:31:30;5.38;;;4.10;;
21804;SDS011;11064;47.102;15.452;2022-09-03T06:33:56;5.80;;;3.90;;
21804;SDS011;11064;47.102;15.452;2022-09-03T06:36:23;4.22;;;3.63;;
21804;SDS011;11064;47.102;15.452;2022-09-03T06:38:51;4.43;;;3.85;;
21804;SDS011;11064;47.102;15.452;2022-09-03T06:41:19;6.38;;;3.75;;
21804;SDS011;11064;47.102;15.452;2022-09-03T06:46:16;5.90;;;3.50;;
21804;SDS011;11064;47.102;15.452;2022-09-03T06:48:44;6.45;;;3.63;;
21804;SDS011;11064;47.102;15.452;2022-09-03T06:51:15;7.53;;;3.10;;
21804;SDS011;11064;47.102;15.452;2022-09-03T06:53:49;4.72;;;3.50;;
21804;SDS011;11064;47.102;15.452;2022-09-03T06:56:17;4.88;;;3.60;;
21804;SDS011;11064;47.102;15.452;2022-09-03T06:58:50;4.32;;;3.25;;
21804;SDS011;11064;47.102;15.452;2022-09-03T07:01:21;5.35;;;3.38;;
21804;SDS011;11064;47.102;15.452;2022-09-03T07:03:54;4.50;;;3.35;;
21804;SDS011;11064;47.102;15.452;2022-09-03T07:06:25;5.13;;;3.28;;
21804;SDS011;11064;47.102;15.452;2022-09-03T07:09:01;4.60;;;3.38;;
21804;SDS011;11064;47.102;15.452;2022-09-03T07:11:28;4.95;;;3.30;;
21804;SDS011;11064;47.102;15.452;2022-09-03T07:13:57;4.10;;;3.42;;
21804;SDS011;11064;47.102;15.452;2022-09-03T07:16:27;4.80;;;3.28;;
21804;SDS011;11064;47.102;15.452;2022-09-03T07:18:58;5.47;;;2.92;;
21804;SDS011;11064;47.102;15.452;2022-09-03T07:21:26;4.35;;;3.10;;
21804;SDS011;11064;47.102;15.452;2022-09-03T07:23:54;4.72;;;3.05;;
21804;SDS011;11064;47.102;15.452;2022-09-03T07:26:22;6.60;;;3.30;;
21804;SDS011;11064;47.102;15.452;2022-09-03T07:28:49;4.25;;;3.10;;
21804;SDS011;11064;47.102;15.452;2022-09-03T07:31:20;3.88;;;3.10;;
21804;SDS011;11064;47.102;15.452;2022-09-03T07:33:51;4.00;;;3.03;;
21804;SDS011;11064;47.102;15.452;2022-09-03T07:36:19;6.10;;;2.88;;
21804;SDS011;11064;47.102;15.452;2022-09-03T07:38:47;5.43;;;2.90;;
21804;SDS011;11064;47.102;15.452;2022-09-03T07:41:13;4.28;;;2.92;;
21804;SDS011;11064;47.102;15.452;2022-09-03T07:43:41;3.78;;;2.88;;
21804;SDS011;11064;47.102;15.452;2022-09-03T07:46:17;4.40;;;3.10;;
21804;SDS011;11064;47.102;15.452;2022-09-03T07:48:54;5.53;;;3.00;;
21804;SDS011;11064;47.102;15.452;2022-09-03T07:51:23;6.78;;;2.90;;
21804;SDS011;11064;47.102;15.452;2022-09-03T07:53:53;5.93;;;3.05;;
21804;SDS011;11064;47.102;15.452;2022-09-03T07:56:22;5.53;;;3.00;;
21804;SDS011;11064;47.102;15.452;2022-09-03T07:58:48;5.10;;;2.75;;
21804;SDS011;11064;47.102;15.452;2022-09-03T08:01:15;4.57;;;2.70;;
21804;SDS011;11064;47.102;15.452;2022-09-03T08:03:43;6.20;;;2.90;;
21804;SDS011;11064;47.102;15.452;2022-09-03T08:06:14;3.17;;;2.88;;
21804;SDS011;11064;47.102;15.452;2022-09-03T08:08:43;9.27;;;3.00;;
21804;SDS011;11064;47.102;15.452;2022-09-03T08:11:16;5.47;;;3.22;;
21804;SDS011;11064;47.102;15.452;2022-09-03T08:13:56;3.30;;;2.92;;
21804;SDS011;11064;47.102;15.452;2022-09-03T08:16:30;3.83;;;2.78;;
21804;SDS011;11064;47.102;15.452;2022-09-03T08:18:57;5.47;;;2.95;;
21804;SDS011;11064;47.102;15.452;2022-09-03T08:21:24;6.10;;;3.15;;
21804;SDS011;11064;47.102;15.452;2022-09-03T08:23:51;6.35;;;3.13;;
21804;SDS011;11064;47.102;15.452;2022-09-03T08:26:21;4.97;;;3.03;;
21804;SDS011;11064;47.102;15.452;2022-09-03T08:28:47;4.32;;;2.85;;
21804;SDS011;11064;47.102;15.452;2022-09-03T08:31:14;4.20;;;3.05;;
21804;SDS011;11064;47.102;15.452;2022-09-03T08:33:43;4.88;;;3.17;;
21804;SDS011;11064;47.102;15.452;2022-09-03T08:36:15;3.25;;;2.95;;
21804;SDS011;11064;47.102;15.452;2022-09-03T08:38:43;4.22;;;3.20;;
21804;SDS011;11064;47.102;15.452;2022-09-03T08:46:31;4.70;;;2.85;;
21804;SDS011;11064;47.102;15.452;2022-09-03T08:49:19;4.80;;;2.55;;
21804;SDS011;11064;47.102;15.452;2022-09-03T08:51:54;4.25;;;2.97;;
21804;SDS011;11064;47.102;15.452;2022-09-03T08:54:25;6.50;;;2.70;;
21804;SDS011;11064;47.102;15.452;2022-09-03T08:56:53;5.05;;;3.10;;
21804;SDS011;11064;47.102;15.452;2022-09-03T08:59:24;4.22;;;2.70;;
21804;SDS011;11064;47.102;15.452;2022-09-03T09:01:51;3.03;;;2.63;;
21804;SDS011;11064;47.102;15.452;2022-09-03T09:06:59;5.35;;;3.10;;
21804;SDS011;11064;47.102;15.452;2022-09-03T09:12:34;5.82;;;2.97;;
21804;SDS011;11064;47.102;15.452;2022-09-03T09:15:18;3.95;;;2.60;;
21804;SDS011;11064;47.102;15.452;2022-09-03T09:20:46;3.80;;;2.90;;
21804;SDS011;11064;47.102;15.452;2022-09-03T09:26:19;3.85;;;2.55;;
21804;SDS011;11064;47.102;15.452;2022-09-03T09:28:46;6.45;;;2.95;;
21804;SDS011;11064;47.102;15.452;2022-09-03T09:31:21;3.63;;;2.83;;
21804;SDS011;11064;47.102;15.452;2022-09-03T09:33:47;4.97;;;3.10;;
21804;SDS011;11064;47.102;15.452;2022-09-03T09:36:14;4.00;;;2.70;;
21804;SDS011;11064;47.102;15.452;2022-09-03T09:38:43;4.55;;;2.90;;
21804;SDS011;11064;47.102;15.452;2022-09-03T09:41:12;4.03;;;2.45;;
21804;SDS011;11064;47.102;15.452;2022-09-03T09:43:43;3.78;;;2.70;;
21804;SDS011;11064;47.102;15.452;2022-09-03T09:46:33;4.43;;;2.88;;
21804;SDS011;11064;47.102;15.452;2022-09-03T09:49:01;3.35;;;2.60;;
21804;SDS011;11064;47.102;15.452;2022-09-03T09:51:28;5.18;;;2.90;;
21804;SDS011;11064;47.102;15.452;2022-09-03T09:54:02;4.75;;;2.92;;
21804;SDS011;11064;47.102;15.452;2022-09-03T09:56:36;5.38;;;2.70;;
21804;SDS011;11064;47.102;15.452;2022-09-03T09:59:05;4.50;;;2.90;;
21804;SDS011;11064;47.102;15.452;2022-09-03T10:01:35;3.63;;;2.70;;
21804;SDS011;11064;47.102;15.452;2022-09-03T10:06:36;4.40;;;2.80;;
21804;SDS011;11064;47.102;15.452;2022-09-03T10:09:20;6.80;;;2.80;;
21804;SDS011;11064;47.102;15.452;2022-09-03T10:14:27;5.30;;;2.80;;
21804;SDS011;11064;47.102;15.452;2022-09-03T10:22:53;3.40;;;2.63;;
21804;SDS011;11064;47.102;15.452;2022-09-03T10:28:09;6.28;;;3.00;;
21804;SDS011;11064;47.102;15.452;2022-09-03T10:30:43;3.00;;;2.45;;
21804;SDS011;11064;47.102;15.452;2022-09-03T10:33:26;3.25;;;2.60;;
21804;SDS011;11064;47.102;15.452;2022-09-03T10:39:20;3.58;;;2.85;;
21804;SDS011;11064;47.102;15.452;2022-09-03T10:53:29;5.95;;;2.75;;
21804;SDS011;11064;47.102;15.452;2022-09-03T10:56:18;4.60;;;2.97;;
21804;SDS011;11064;47.102;15.452;2022-09-03T11:01:47;4.57;;;2.80;;
21804;SDS011;11064;47.102;15.452;2022-09-03T11:09:23;5.18;;;2.92;;
21804;SDS011;11064;47.102;15.452;2022-09-03T11:11:55;3.33;;;2.80;;
21804;SDS011;11064;47.102;15.452;2022-09-03T11:14:43;3.08;;;2.78;;
21804;SDS011;11064;47.102;15.452;2022-09-03T11:17:21;2.97;;;2.67;;
21804;SDS011;11064;47.102;15.452;2022-09-03T11:19:56;4.30;;;2.92;;
21804;SDS011;11064;47.102;15.452;2022-09-03T11:22:39;5.15;;;3.03;;
21804;SDS011;11064;47.102;15.452;2022-09-03T11:25:07;6.88;;;2.85;;
21804;SDS011;11064;47.102;15.452;2022-09-03T11:30:32;3.50;;;2.60;;
21804;SDS011;11064;47.102;15.452;2022-09-03T11:33:08;5.93;;;2.70;;
21804;SDS011;11064;47.102;15.452;2022-09-03T11:41:09;5.00;;;2.90;;
21804;SDS011;11064;47.102;15.452;2022-09-03T11:43:47;5.57;;;2.58;;
21804;SDS011;11064;47.102;15.452;2022-09-03T11:48:49;4.43;;;2.63;;
21804;SDS011;11064;47.102;15.452;2022-09-03T11:56:38;2.80;;;2.40;;
21804;SDS011;11064;47.102;15.452;2022-09-03T11:59:23;4.72;;;2.28;;
21804;SDS011;11064;47.102;15.452;2022-09-03T12:01:57;4.90;;;2.60;;
21804;SDS011;11064;47.102;15.452;2022-09-03T12:13:04;3.75;;;2.55;;
21804;SDS011;11064;47.102;15.452;2022-09-03T12:18:43;3.25;;;2.50;;
21804;SDS011;11064;47.102;15.452;2022-09-03T12:21:15;3.47;;;2.85;;
21804;SDS011;11064;47.102;15.452;2022-09-03T12:26:18;2.75;;;2.40;;
21804;SDS011;11064;47.102;15.452;2022-09-03T12:28:49;4.97;;;2.30;;
21804;SDS011;11064;47.102;15.452;2022-09-03T12:33:55;2.53;;;2.30;;
21804;SDS011;11064;47.102;15.452;2022-09-03T12:36:25;4.32;;;2.90;;
21804;SDS011;11064;47.102;15.452;2022-09-03T12:39:37;3.58;;;2.60;;
21804;SDS011;11064;47.102;15.452;2022-09-03T12:42:09;3.25;;;2.28;;
21804;SDS011;11064;47.102;15.452;2022-09-03T12:44:48;4.60;;;2.40;;
21804;SDS011;11064;47.102;15.452;2022-09-03T12:47:15;2.60;;;2.40;;
21804;SDS011;11064;47.102;15.452;2022-09-03T12:49:44;2.70;;;2.20;;
21804;SDS011;11064;47.102;15.452;2022-09-03T12:52:19;5.00;;;2.58;;
21804;SDS011;11064;47.102;15.452;2022-09-03T13:00:27;3.35;;;2.50;;
21804;SDS011;11064;47.102;15.452;2022-09-03T13:02:59;3.97;;;2.47;;
21804;SDS011;11064;47.102;15.452;2022-09-03T13:05:43;2.65;;;2.42;;
21804;SDS011;11064;47.102;15.452;2022-09-03T13:10:55;3.80;;;2.50;;
21804;SDS011;11064;47.102;15.452;2022-09-03T13:13:28;2.58;;;2.38;;
21804;SDS011;11064;47.102;15.452;2022-09-03T13:26:24;4.82;;;2.40;;
21804;SDS011;11064;47.102;15.452;2022-09-03T13:36:45;3.47;;;3.00;;
21804;SDS011;11064;47.102;15.452;2022-09-03T13:45:02;3.15;;;2.55;;
21804;SDS011;11064;47.102;15.452;2022-09-03T13:47:34;2.90;;;2.47;;
21804;SDS011;11064;47.102;15.452;2022-09-03T13:50:41;4.07;;;2.60;;
21804;SDS011;11064;47.102;15.452;2022-09-03T13:53:16;3.03;;;2.53;;
21804;SDS011;11064;47.102;15.452;2022-09-03T13:55:49;4.45;;;2.42;;
21804;SDS011;11064;47.102;15.452;2022-09-03T14:03:42;3.88;;;2.60;;
21804;SDS011;11064;47.102;15.452;2022-09-03T14:09:41;3.33;;;2.42;;
21804;SDS011;11064;47.102;15.452;2022-09-03T14:12:34;3.13;;;2.50;;
21804;SDS011;11064;47.102;15.452;2022-09-03T14:18:12;3.30;;;2.33;;
21804;SDS011;11064;47.102;15.452;2022-09-03T14:20:53;2.97;;;2.50;;
21804;SDS011;11064;47.102;15.452;2022-09-03T14:23:35;3.03;;;2.30;;
21804;SDS011;11064;47.102;15.452;2022-09-03T14:26:26;2.25;;;2.05;;
21804;SDS011;11064;47.102;15.452;2022-09-03T14:28:58;2.95;;;2.20;;
21804;SDS011;11064;47.102;15.452;2022-09-03T14:37:08;4.18;;;2.22;;
21804;SDS011;11064;47.102;15.452;2022-09-03T14:49:07;3.97;;;2.08;;
21804;SDS011;11064;47.102;15.452;2022-09-03T14:51:41;4.07;;;2.25;;
21804;SDS011;11064;47.102;15.452;2022-09-03T14:54:35;2.42;;;1.95;;
21804;SDS011;11064;47.102;15.452;2022-09-03T14:57:21;4.28;;;2.58;;
21804;SDS011;11064;47.102;15.452;2022-09-03T15:00:13;3.33;;;2.20;;
21804;SDS011;11064;47.102;15.452;2022-09-03T15:07:59;3.50;;;2.15;;
21804;SDS011;11064;47.102;15.452;2022-09-03T15:10:45;4.15;;;2.17;;
21804;SDS011;11064;47.102;15.452;2022-09-03T15:13:20;2.40;;;2.20;;
21804;SDS011;11064;47.102;15.452;2022-09-03T15:15:51;3.80;;;2.10;;
21804;SDS011;11064;47.102;15.452;2022-09-03T15:18:29;3.53;;;2.10;;
21804;SDS011;11064;47.102;15.452;2022-09-03T15:30:00;2.35;;;2.13;;
21804;SDS011;11064;47.102;15.452;2022-09-03T15:32:45;4.43;;;2.30;;
21804;SDS011;11064;47.102;15.452;2022-09-03T15:38:19;3.38;;;2.20;;
21804;SDS011;11064;47.102;15.452;2022-09-03T15:41:09;5.30;;;2.20;;
21804;SDS011;11064;47.102;15.452;2022-09-03T15:44:00;4.15;;;2.10;;
21804;SDS011;11064;47.102;15.452;2022-09-03T15:46:49;5.88;;;2.42;;
21804;SDS011;11064;47.102;15.452;2022-09-03T15:52:05;5.03;;;2.00;;
21804;SDS011;11064;47.102;15.452;2022-09-03T15:54:42;3.33;;;2.10;;
21804;SDS011;11064;47.102;15.452;2022-09-03T16:00:06;2.70;;;2.28;;
21804;SDS011;11064;47.102;15.452;2022-09-03T16:03:09;3.05;;;2.20;;
21804;SDS011;11064;47.102;15.452;2022-09-03T16:05:54;4.27;;;2.17;;
21804;SDS011;11064;47.102;15.452;2022-09-03T16:08:58;4.43;;;2.38;;
21804;SDS011;11064;47.102;15.452;2022-09-03T16:11:37;3.95;;;2.30;;
21804;SDS011;11064;47.102;15.452;2022-09-03T16:14:15;3.50;;;2.50;;
21804;SDS011;11064;47.102;15.452;2022-09-03T16:16:59;3.30;;;2.47;;
21804;SDS011;11064;47.102;15.452;2022-09-03T16:19:55;3.05;;;2.50;;
21804;SDS011;11064;47.102;15.452;2022-09-03T16:22:29;2.97;;;2.47;;
21804;SDS011;11064;47.102;15.452;2022-09-03T16:35:07;3.30;;;2.40;;
21804;SDS011;11064;47.102;15.452;2022-09-03T16:37:45;3.70;;;2.63;;
21804;SDS011;11064;47.102;15.452;2022-09-03T16:40:32;5.50;;;2.60;;
21804;SDS011;11064;47.102;15.452;2022-09-03T16:45:56;3.17;;;2.50;;
21804;SDS011;11064;47.102;15.452;2022-09-03T16:48:40;2.60;;;2.40;;
21804;SDS011;11064;47.102;15.452;2022-09-03T16:51:32;5.38;;;2.45;;
21804;SDS011;11064;47.102;15.452;2022-09-03T17:00:06;4.90;;;2.55;;
21804;SDS011;11064;47.102;15.452;2022-09-03T17:02:44;5.13;;;2.85;;
21804;SDS011;11064;47.102;15.452;2022-09-03T17:05:56;7.38;;;2.88;;
21804;SDS011;11064;47.102;15.452;2022-09-03T17:08:41;4.43;;;2.90;;
21804;SDS011;11064;47.102;15.452;2022-09-03T17:11:36;3.90;;;3.00;;
21804;SDS011;11064;47.102;15.452;2022-09-03T17:26:10;3.20;;;2.78;;
21804;SDS011;11064;47.102;15.452;2022-09-03T17:31:28;5.97;;;2.90;;
21804;SDS011;11064;47.102;15.452;2022-09-03T17:36:47;4.50;;;3.08;;
21804;SDS011;11064;47.102;15.452;2022-09-03T17:42:03;5.18;;;3.03;;
21804;SDS011;11064;47.102;15.452;2022-09-03T17:44:59;4.35;;;3.10;;
21804;SDS011;11064;47.102;15.452;2022-09-03T17:47:41;7.03;;;3.00;;
21804;SDS011;11064;47.102;15.452;2022-09-03T17:50:33;5.50;;;3.13;;
21804;SDS011;11064;47.102;15.452;2022-09-03T17:53:09;4.13;;;2.90;;
21804;SDS011;11064;47.102;15.452;2022-09-03T17:55:49;4.18;;;2.75;;
21804;SDS011;11064;47.102;15.452;2022-09-03T17:58:28;6.00;;;2.83;;
21804;SDS011;11064;47.102;15.452;2022-09-03T18:09:08;5.85;;;2.88;;
21804;SDS011;11064;47.102;15.452;2022-09-03T18:11:40;3.13;;;2.80;;
21804;SDS011;11064;47.102;15.452;2022-09-03T18:17:34;4.82;;;2.90;;
21804;SDS011;11064;47.102;15.452;2022-09-03T18:20:08;5.05;;;2.75;;
21804;SDS011;11064;47.102;15.452;2022-09-03T18:23:16;4.63;;;2.90;;
21804;SDS011;11064;47.102;15.452;2022-09-03T18:26:13;5.18;;;3.00;;
21804;SDS011;11064;47.102;15.452;2022-09-03T18:29:10;4.60;;;2.70;;
21804;SDS011;11064;47.102;15.452;2022-09-03T18:31:59;3.72;;;2.50;;
21804;SDS011;11064;47.102;15.452;2022-09-03T18:34:44;2.83;;;2.40;;
21804;SDS011;11064;47.102;15.452;2022-09-03T18:37:29;3.60;;;2.50;;
21804;SDS011;11064;47.102;15.452;2022-09-03T18:40:22;5.05;;;2.90;;
21804;SDS011;11064;47.102;15.452;2022-09-03T18:49:38;3.35;;;2.40;;
21804;SDS011;11064;47.102;15.452;2022-09-03T18:55:42;4.38;;;2.55;;
21804;SDS011;11064;47.102;15.452;2022-09-03T19:07:46;3.40;;;2.50;;
21804;SDS011;11064;47.102;15.452;2022-09-03T19:13:33;2.80;;;2.40;;
21804;SDS011;11064;47.102;15.452;2022-09-03T19:20:07;2.80;;;2.60;;
21804;SDS011;11064;47.102;15.452;2022-09-03T19:23:08;2.92;;;2.25;;
21804;SDS011;11064;47.102;15.452;2022-09-03T19:25:52;4.78;;;2.60;;
21804;SDS011;11064;47.102;15.452;2022-09-03T19:28:40;2.72;;;2.47;;
21804;SDS011;11064;47.102;15.452;2022-09-03T19:37:55;4.03;;;2.50;;
21804;SDS011;11064;47.102;15.452;2022-09-03T19:43:59;4.55;;;2.67;;
21804;SDS011;11064;47.102;15.452;2022-09-03T19:46:57;2.95;;;2.50;;
21804;SDS011;11064;47.102;15.452;2022-09-03T19:52:53;5.22;;;2.60;;
21804;SDS011;11064;47.102;15.452;2022-09-03T19:55:45;3.95;;;2.72;;
21804;SDS011;11064;47.102;15.452;2022-09-03T19:58:32;4.90;;;2.60;;
21804;SDS011;11064;47.102;15.452;2022-09-03T20:01:20;4.78;;;3.10;;
21804;SDS011;11064;47.102;15.452;2022-09-03T20:04:12;3.88;;;2.83;;
21804;SDS011;11064;47.102;15.452;2022-09-03T20:06:58;2.92;;;2.63;;
21804;SDS011;11064;47.102;15.452;2022-09-03T20:09:45;3.10;;;2.80;;
21804;SDS011;11064;47.102;15.452;2022-09-03T20:12:32;3.10;;;2.80;;
21804;SDS011;11064;47.102;15.452;2022-09-03T20:15:02;3.60;;;2.90;;
21804;SDS011;11064;47.102;15.452;2022-09-03T20:17:37;4.28;;;3.13;;
21804;SDS011;11064;47.102;15.452;2022-09-03T20:20:18;4.03;;;2.80;;
21804;SDS011;11064;47.102;15.452;2022-09-03T20:26:58;4.32;;;3.10;;
21804;SDS011;11064;47.102;15.452;2022-09-03T20:31:48;4.63;;;2.83;;
21804;SDS011;11064;47.102;15.452;2022-09-03T20:34:26;3.17;;;2.85;;
21804;SDS011;11064;47.102;15.452;2022-09-03T20:48:24;5.55;;;3.17;;
21804;SDS011;11064;47.102;15.452;2022-09-03T20:51:05;3.88;;;3.10;;
21804;SDS011;11064;47.102;15.452;2022-09-03T20:58:58;3.63;;;3.30;;
21804;SDS011;11064;47.102;15.452;2022-09-03T21:01:44;3.60;;;3.22;;
21804;SDS011;11064;47.102;15.452;2022-09-03T21:04:22;5.35;;;3.40;;
21804;SDS011;11064;47.102;15.452;2022-09-03T21:07:19;4.28;;;3.38;;
21804;SDS011;11064;47.102;15.452;2022-09-03T21:10:14;4.47;;;3.42;;
21804;SDS011;11064;47.102;15.452;2022-09-03T21:15:38;4.05;;;3.35;;
21804;SDS011;11064;47.102;15.452;2022-09-03T21:18:19;4.15;;;3.22;;
21804;SDS011;11064;47.102;15.452;2022-09-03T21:20:54;8.23;;;3.53;;
21804;SDS011;11064;47.102;15.452;2022-09-03T21:23:32;5.80;;;3.33;;
21804;SDS011;11064;47.102;15.452;2022-09-03T21:26:23;4.82;;;3.53;;
21804;SDS011;11064;47.102;15.452;2022-09-03T21:31:36;8.35;;;3.53;;
21804;SDS011;11064;47.102;15.452;2022-09-03T21:34:19;6.07;;;3.70;;
21804;SDS011;11064;47.102;15.452;2022-09-03T21:36:49;5.93;;;3.53;;
21804;SDS011;11064;47.102;15.452;2022-09-03T21:39:19;7.25;;;3.63;;
21804;SDS011;11064;47.102;15.452;2022-09-03T21:42:23;4.78;;;3.38;;
21804;SDS011;11064;47.102;15.452;2022-09-03T21:47:49;5.85;;;3.70;;
21804;SDS011;11064;47.102;15.452;2022-09-03T21:53:11;4.43;;;3.40;;
21804;SDS011;11064;47.102;15.452;2022-09-03T21:55:54;4.57;;;3.80;;
